CheckWX is a tool to help pilots better visualize weather data.  It is not intended as a substitute for an official pre-flight weather briefing.

15:08:48 UTC

KPAM TAF
Tyndall AFB Airport
Panama City, Florida, USA
TAF AMD KPAM 131949Z 1319/1501 05010KT 9999 SCT005 OVC130 QNH2981INS TEMPO 1319/1321 05009KT 8000 BR OVC005 BECMG 1321/1322 10006KT 9999 -SHRA OVC005 QNH2973INS TEMPO 1401/1407 15015G25KT 4800 TSRA OVC003CB BECMG 1406/1407 31012G20KT 9999 NSW BKN010 QNH2974INS BECMG 1415/1416 30010G15KT 9999 FEW015 BKN200 QNH2978INS TX15/1320Z TN10/1414Z LAST NO AMDS AFT 1321 NEXT 1611

Dec-13@
19:00 UTC

Dec-13 @ 19:00 UTC

Dec-13@
21:00 UTC

Dec-13 @ 21:00 UTC

TAF AMD KPAM 131949Z 1319/1501 05010KT 9999 SCT005 OVC130 QNH2981INS

Expired

Wind
  • 050° at 10 KTS
Cloud Levels
  • Scattered at 500' AGL
  • Overcast at 13,000' AGL

Dec-13@
19:00 UTC

Dec-13 @ 19:00 UTC

Dec-13@
21:00 UTC

Dec-13 @ 21:00 UTC

TEMPO 1319/1321 05009KT 8000 BR OVC005

Expired

Wind
  • 050° at 9 KTS
Conditions
Mist
Cloud Levels
  • Overcast at 500' AGL

Dec-13@
21:00 UTC

Dec-13 @ 21:00 UTC

Dec-14@
06:00 UTC

Dec-14 @ 06:00 UTC

BECMG 1321/1322 10006KT 9999 -SHRA OVC005 QNH2973INS

Expired

Wind
  • 100° at 6 KTS
Conditions
Light Rain
Cloud Levels
  • Overcast at 500' AGL

Dec-14@
01:00 UTC

Dec-14 @ 01:00 UTC

Dec-14@
07:00 UTC

Dec-14 @ 07:00 UTC

TEMPO 1401/1407 15015G25KT 4800 TSRA OVC003CB

Expired

Wind
  • 150° at 15 KTS
  • {Gusting to 25 KTS
Conditions
Thunderstorm, Rain
Cloud Levels
  • Overcast at 300' AGL

Dec-14@
06:00 UTC

Dec-14 @ 06:00 UTC

Dec-14@
15:00 UTC

Dec-14 @ 15:00 UTC

BECMG 1406/1407 31012G20KT 9999 NSW BKN010 QNH2974INS

Expired

Wind
  • 310° at 12 KTS
  • {Gusting to 20 KTS
Conditions
No significant weather
Cloud Levels
  • Broken at 1,000' AGL

Dec-14@
15:00 UTC

Dec-14 @ 15:00 UTC

Dec-15@
01:00 UTC

Dec-15 @ 01:00 UTC

BECMG 1415/1416 30010G15KT 9999 FEW015 BKN200 QNH2978INS TX15/1320Z TN10/1414Z LAST NO AMDS AFT 1321 NEXT 1611

Becoming

Becoming Conditions expected by Sat, Dec 14, 2019 @ 16:00 UTC

Wind
  • 300° at 10 KTS
  • {Gusting to 15 KTS
Conditions
No significant weather
Cloud Levels
  • Few at 1,500' AGL
  • Broken at 20,000' AGL